createdAt,value
2022-10-20T00:01:22.093Z,21.70
2022-10-20T00:03:52.709Z,21.70
2022-10-20T00:06:22.870Z,21.70
2022-10-20T00:08:51.845Z,21.70
2022-10-20T00:11:22.146Z,21.70
2022-10-20T00:13:52.789Z,21.70
2022-10-20T00:16:22.982Z,21.60
2022-10-20T00:18:52.807Z,21.60
2022-10-20T00:21:23.208Z,21.60
2022-10-20T00:23:52.126Z,21.60
2022-10-20T00:26:22.809Z,21.60
2022-10-20T00:28:51.908Z,21.60
2022-10-20T00:31:22.229Z,21.60
2022-10-20T00:33:50.531Z,21.60
2022-10-20T00:36:21.935Z,21.50
2022-10-20T00:38:51.139Z,21.50
2022-10-20T00:41:22.281Z,21.50
2022-10-20T00:43:54.670Z,21.50
2022-10-20T00:46:24.747Z,21.50
2022-10-20T00:48:55.605Z,21.50
2022-10-20T00:51:29.101Z,21.50
2022-10-20T00:54:01.343Z,21.50
2022-10-20T00:56:29.701Z,21.50
2022-10-20T00:58:58.136Z,21.50
2022-10-20T01:01:26.858Z,21.40
2022-10-20T01:03:55.255Z,21.40
2022-10-20T01:06:25.030Z,21.40
2022-10-20T01:08:55.094Z,21.40
2022-10-20T01:11:33.222Z,21.40
2022-10-20T01:14:21.569Z,21.30
2022-10-20T01:17:00.394Z,21.30
2022-10-20T01:20:12.869Z,21.30
2022-10-20T01:23:12.233Z,21.30
2022-10-20T01:25:56.721Z,21.30
2022-10-20T01:28:32.804Z,21.30
2022-10-20T01:31:04.622Z,21.30
2022-10-20T01:33:41.605Z,21.30
2022-10-20T01:36:18.728Z,21.30
2022-10-20T01:38:53.506Z,21.30
2022-10-20T01:41:33.081Z,21.30
2022-10-20T01:44:05.544Z,21.20
2022-10-20T01:46:35.159Z,21.20
2022-10-20T01:49:05.067Z,21.20
2022-10-20T01:51:33.864Z,21.20
2022-10-20T01:54:02.181Z,21.20
2022-10-20T01:56:39.498Z,21.20
2022-10-20T01:59:42.544Z,21.10
2022-10-20T02:02:33.216Z,21.10
2022-10-20T02:05:17.322Z,21.10
2022-10-20T02:07:45.916Z,21.10
2022-10-20T02:10:18.489Z,21.10
2022-10-20T02:12:51.715Z,21.10
2022-10-20T02:15:25.476Z,21.00
2022-10-20T02:17:57.797Z,21.00
2022-10-20T02:20:26.383Z,21.00
2022-10-20T02:22:55.699Z,21.00
2022-10-20T02:25:25.355Z,20.90
2022-10-20T02:27:55.973Z,20.90
2022-10-20T02:30:26.222Z,21.00
2022-10-20T02:32:54.515Z,20.90
2022-10-20T02:35:27.449Z,20.90
2022-10-20T02:37:55.688Z,21.00
2022-10-20T02:40:23.948Z,20.90
2022-10-20T02:42:52.317Z,20.90
2022-10-20T02:45:20.908Z,20.90
2022-10-20T02:47:50.638Z,20.90
2022-10-20T02:50:19.054Z,20.80
2022-10-20T02:52:47.428Z,20.90
2022-10-20T02:55:15.901Z,20.80
2022-10-20T02:57:44.345Z,20.80
2022-10-20T03:00:13.892Z,20.80
2022-10-20T03:02:42.235Z,20.80
2022-10-20T03:05:12.125Z,20.80
2022-10-20T03:07:40.490Z,20.80
2022-10-20T03:10:09.759Z,20.80
2022-10-20T03:12:38.055Z,20.80
2022-10-20T03:15:07.376Z,20.80
2022-10-20T03:17:36.175Z,20.70
2022-10-20T03:20:05.529Z,20.70
2022-10-20T03:22:35.195Z,20.70
2022-10-20T03:25:03.445Z,20.70
2022-10-20T03:27:31.714Z,20.70
2022-10-20T03:30:00.053Z,20.70
2022-10-20T03:32:28.340Z,20.70
2022-10-20T03:34:56.646Z,20.60
2022-10-20T03:37:25.031Z,20.70
2022-10-20T03:39:54.862Z,20.60
2022-10-20T03:42:23.199Z,20.60
2022-10-20T03:44:51.522Z,20.60
2022-10-20T03:47:19.823Z,20.60
2022-10-20T03:49:48.122Z,20.60
2022-10-20T03:52:16.486Z,20.60
2022-10-20T03:54:45.026Z,20.50
2022-10-20T03:57:14.735Z,20.50
2022-10-20T03:59:43.125Z,20.50
2022-10-20T04:02:24.695Z,20.50
2022-10-20T04:04:53.480Z,20.40
2022-10-20T04:07:21.828Z,20.50
2022-10-20T04:09:50.085Z,20.50
2022-10-20T04:12:20.017Z,20.40
2022-10-20T04:14:50.104Z,20.40
2022-10-20T04:17:18.417Z,20.40
2022-10-20T04:19:47.329Z,20.40
2022-10-20T04:22:15.745Z,20.30
2022-10-20T04:24:44.074Z,20.40
2022-10-20T04:27:12.591Z,20.40
2022-10-20T04:29:42.383Z,20.30
2022-10-20T04:32:10.792Z,20.30
2022-10-20T04:34:39.066Z,20.30
2022-10-20T04:37:07.523Z,20.30
2022-10-20T04:39:35.820Z,20.20
2022-10-20T04:42:04.220Z,20.20
2022-10-20T04:44:32.548Z,20.20
2022-10-20T04:47:02.356Z,20.20
2022-10-20T04:49:30.655Z,20.20
2022-10-20T04:52:01.131Z,20.20
2022-10-20T04:54:30.349Z,20.20
2022-10-20T04:56:58.730Z,20.20
2022-10-20T04:59:27.106Z,20.10
2022-10-20T05:01:55.454Z,20.10
2022-10-20T05:04:25.549Z,20.10
2022-10-20T05:06:53.901Z,20.10
2022-10-20T05:09:22.352Z,20.10
2022-10-20T05:11:50.663Z,20.10
2022-10-20T05:14:18.953Z,20.10
2022-10-20T05:16:47.318Z,20.00
2022-10-20T05:19:15.640Z,20.00
2022-10-20T05:21:45.557Z,20.00
2022-10-20T05:24:19.788Z,20.00
2022-10-20T05:26:49.908Z,20.00
2022-10-20T05:29:18.143Z,20.00
2022-10-20T05:31:46.424Z,20.00
2022-10-20T05:34:14.717Z,20.00
2022-10-20T05:36:44.440Z,20.00
2022-10-20T05:39:12.958Z,20.00
2022-10-20T05:41:41.461Z,20.00
2022-10-20T05:44:12.911Z,19.90
2022-10-20T05:46:42.725Z,19.90
2022-10-20T05:49:15.755Z,20.00
2022-10-20T05:51:47.257Z,19.90
2022-10-20T05:54:17.491Z,20.00
2022-10-20T05:56:45.829Z,19.90
2022-10-20T05:59:14.818Z,20.00
2022-10-20T06:01:49.108Z,20.00
2022-10-20T06:04:19.056Z,20.00
2022-10-20T06:06:49.050Z,20.00
2022-10-20T06:09:18.125Z,20.00
2022-10-20T06:11:46.474Z,19.90
2022-10-20T06:14:14.883Z,19.90
2022-10-20T06:16:43.104Z,19.90
2022-10-20T06:19:11.853Z,19.90
2022-10-20T06:21:40.214Z,19.90
2022-10-20T06:24:11.679Z,19.90
2022-10-20T06:26:40.766Z,19.90
2022-10-20T06:29:11.483Z,19.90
2022-10-20T06:31:41.269Z,19.90
2022-10-20T06:34:12.651Z,19.90
2022-10-20T06:36:42.324Z,19.90
2022-10-20T06:39:15.048Z,19.90
2022-10-20T06:41:43.706Z,19.90
2022-10-20T06:44:12.741Z,19.90
2022-10-20T06:46:41.095Z,19.90
2022-10-20T06:49:11.670Z,19.90
2022-10-20T06:51:40.492Z,19.90
2022-10-20T06:54:09.452Z,19.90
2022-10-20T06:56:41.330Z,19.90
2022-10-20T06:59:09.806Z,19.90
2022-10-20T07:01:40.097Z,19.90
2022-10-20T07:04:11.584Z,19.90
2022-10-20T07:06:41.816Z,19.90
2022-10-20T07:09:15.821Z,19.90
2022-10-20T07:11:46.156Z,19.90
2022-10-20T07:14:15.129Z,20.00
2022-10-20T07:16:43.518Z,19.90
2022-10-20T07:19:11.922Z,20.00
2022-10-20T07:21:41.756Z,20.00
2022-10-20T07:24:13.703Z,20.00
2022-10-20T07:26:42.833Z,20.00
2022-10-20T07:29:13.232Z,20.10
2022-10-20T07:31:43.400Z,20.10
2022-10-20T07:34:25.198Z,20.10
2022-10-20T07:36:55.451Z,20.20
2022-10-20T07:39:23.766Z,20.20
2022-10-20T07:41:52.096Z,20.30
2022-10-20T07:44:21.770Z,20.40
2022-10-20T07:46:50.209Z,20.40
2022-10-20T07:49:43.592Z,20.40
2022-10-20T07:52:07.443Z,20.40
2022-10-20T07:54:35.850Z,20.40
2022-10-20T07:57:04.139Z,20.40
2022-10-20T07:59:33.910Z,20.40
2022-10-20T08:02:02.301Z,20.50
2022-10-20T08:04:31.869Z,20.50
2022-10-20T08:07:01.110Z,20.50
2022-10-20T08:09:29.543Z,20.60
2022-10-20T08:11:58.045Z,20.60
2022-10-20T08:14:30.785Z,20.70
2022-10-20T08:17:00.599Z,20.70
2022-10-20T08:19:49.974Z,20.80
2022-10-20T08:22:19.993Z,20.80
2022-10-20T08:24:48.288Z,20.80
2022-10-20T08:27:16.607Z,20.90
2022-10-20T08:29:50.909Z,20.90
2022-10-20T08:32:35.208Z,20.90
2022-10-20T08:35:03.728Z,21.00
2022-10-20T08:37:32.405Z,21.00
2022-10-20T08:40:00.819Z,21.00
2022-10-20T08:42:29.160Z,21.00
2022-10-20T08:45:01.531Z,21.00
2022-10-20T08:47:34.314Z,21.00
2022-10-20T08:50:06.050Z,21.00
2022-10-20T08:52:34.705Z,21.10
2022-10-20T08:55:06.397Z,21.10
2022-10-20T08:57:37.243Z,21.10
2022-10-20T09:00:15.854Z,21.20
2022-10-20T09:02:48.716Z,21.20
2022-10-20T09:05:24.431Z,21.20
2022-10-20T09:07:53.863Z,21.30
2022-10-20T09:10:31.126Z,21.30
2022-10-20T09:13:00.399Z,21.30
2022-10-20T09:15:30.072Z,21.40
2022-10-20T09:18:01.940Z,21.40
2022-10-20T09:20:35.639Z,21.40
2022-10-20T09:23:07.846Z,21.40
2022-10-20T09:25:46.458Z,21.50
2022-10-20T09:28:22.809Z,21.50
2022-10-20T09:30:51.735Z,21.60
2022-10-20T09:33:29.034Z,21.70
2022-10-20T09:36:06.028Z,21.70
2022-10-20T09:38:36.638Z,21.80
2022-10-20T09:41:12.478Z,21.80
2022-10-20T09:43:50.011Z,21.90
2022-10-20T09:46:23.108Z,21.90
2022-10-20T09:48:52.451Z,21.90
2022-10-20T09:51:25.002Z,22.00
2022-10-20T09:53:59.967Z,22.10
2022-10-20T09:56:30.919Z,22.10
2022-10-20T09:59:01.592Z,22.20
2022-10-20T10:01:30.312Z,22.20
2022-10-20T10:04:02.090Z,22.30
2022-10-20T10:06:41.838Z,22.30
2022-10-20T10:09:27.245Z,22.40
2022-10-20T10:12:00.965Z,22.50
2022-10-20T10:14:29.408Z,22.50
2022-10-20T10:16:58.001Z,22.50
2022-10-20T10:19:28.723Z,22.70
2022-10-20T10:22:00.227Z,22.70
2022-10-20T10:24:40.468Z,22.70
2022-10-20T10:27:21.112Z,22.80
2022-10-20T10:29:49.600Z,22.80
2022-10-20T10:32:19.639Z,22.90
2022-10-20T10:35:11.177Z,23.00
2022-10-20T10:37:43.809Z,23.00
2022-10-20T10:40:17.727Z,23.00
2022-10-20T10:43:08.145Z,23.10
2022-10-20T10:45:46.438Z,23.20
2022-10-20T10:48:45.797Z,23.20
2022-10-20T10:51:23.435Z,23.40
2022-10-20T10:54:01.974Z,23.40
2022-10-20T10:56:38.669Z,23.40
2022-10-20T10:59:12.582Z,23.50
2022-10-20T11:02:03.663Z,23.60
2022-10-20T11:05:07.409Z,23.60
2022-10-20T11:07:42.890Z,23.80
2022-10-20T11:10:19.467Z,23.70
2022-10-20T11:13:01.694Z,23.80
2022-10-20T11:15:40.882Z,23.90
2022-10-20T11:18:18.712Z,23.90
2022-10-20T11:20:58.330Z,24.00
2022-10-20T11:23:59.737Z,24.10
2022-10-20T11:26:33.972Z,24.10
2022-10-20T11:29:05.295Z,24.30
2022-10-20T11:31:40.138Z,24.30
2022-10-20T11:34:15.342Z,24.40
2022-10-20T11:36:50.844Z,24.50
2022-10-20T11:39:26.329Z,24.50
2022-10-20T11:42:06.592Z,24.60
2022-10-20T11:44:41.332Z,24.70
2022-10-20T11:47:14.786Z,24.70
2022-10-20T11:49:43.641Z,24.90
2022-10-20T11:52:40.318Z,24.90
2022-10-20T11:55:40.207Z,25.00
2022-10-20T11:58:33.806Z,25.00
2022-10-20T12:01:18.869Z,25.10
2022-10-20T12:04:15.397Z,25.20
2022-10-20T12:07:09.079Z,25.30
2022-10-20T12:10:04.640Z,25.40
2022-10-20T12:12:41.406Z,25.50
2022-10-20T12:15:23.755Z,25.50
2022-10-20T12:17:54.190Z,25.70
2022-10-20T12:20:51.319Z,25.70
2022-10-20T12:23:55.087Z,25.70
2022-10-20T12:26:56.110Z,25.80
2022-10-20T12:29:55.958Z,25.90
2022-10-20T12:33:09.978Z,25.90
2022-10-20T12:36:02.408Z,26.00
2022-10-20T12:38:32.094Z,26.00
2022-10-20T12:41:02.710Z,26.10
2022-10-20T12:43:50.650Z,26.10
2022-10-20T12:46:23.329Z,26.10
2022-10-20T12:49:00.148Z,26.10
2022-10-20T12:51:41.155Z,26.20
2022-10-20T12:54:20.830Z,26.30
2022-10-20T12:56:50.091Z,26.20
2022-10-20T12:59:41.107Z,26.30
2022-10-20T13:02:49.717Z,26.30
2022-10-20T13:05:45.728Z,26.40
2022-10-20T13:08:32.860Z,26.40
2022-10-20T13:11:42.100Z,26.40
2022-10-20T13:14:55.461Z,26.40
2022-10-20T13:17:30.515Z,26.40
2022-10-20T13:20:02.107Z,26.40
2022-10-20T13:22:46.626Z,26.40
2022-10-20T13:25:30.760Z,26.30
2022-10-20T13:28:24.421Z,26.30
2022-10-20T13:31:11.144Z,26.30
2022-10-20T13:36:47.263Z,26.30
2022-10-20T13:39:22.793Z,26.30
2022-10-20T13:42:01.092Z,26.30
2022-10-20T13:44:40.530Z,26.30
2022-10-20T13:47:24.863Z,26.30
2022-10-20T13:50:06.037Z,26.30
2022-10-20T13:52:39.160Z,26.30
2022-10-20T13:55:17.257Z,26.30
2022-10-20T13:57:55.255Z,26.30
2022-10-20T14:00:27.305Z,26.30
2022-10-20T14:02:58.490Z,26.30
2022-10-20T14:05:28.801Z,26.30
2022-10-20T14:07:57.650Z,26.30
2022-10-20T14:10:33.532Z,26.30
2022-10-20T14:13:03.665Z,26.30
2022-10-20T14:15:34.917Z,26.20
2022-10-20T14:18:05.562Z,26.20
2022-10-20T14:20:37.517Z,26.20
2022-10-20T14:23:07.870Z,26.20
2022-10-20T14:25:39.500Z,26.20
2022-10-20T14:28:08.181Z,26.10
2022-10-20T14:30:40.139Z,26.10
2022-10-20T14:33:16.282Z,26.10
2022-10-20T14:35:46.951Z,26.10
2022-10-20T14:38:20.859Z,26.10
2022-10-20T14:40:56.509Z,26.10
2022-10-20T14:43:32.124Z,26.10
2022-10-20T14:46:02.837Z,26.10
2022-10-20T14:48:37.033Z,26.10
2022-10-20T14:51:30.224Z,26.00
2022-10-20T14:54:17.225Z,26.00
2022-10-20T14:56:48.539Z,25.90
2022-10-20T14:59:18.665Z,25.90
2022-10-20T15:02:01.410Z,25.90
2022-10-20T15:04:33.629Z,25.90
2022-10-20T15:07:07.092Z,25.80
2022-10-20T15:09:40.633Z,25.80
2022-10-20T15:12:17.061Z,25.80
2022-10-20T15:14:48.390Z,25.70
2022-10-20T15:17:37.474Z,25.70
2022-10-20T15:20:31.435Z,25.70
2022-10-20T15:23:01.560Z,25.60
2022-10-20T15:25:32.079Z,25.60
2022-10-20T15:28:01.913Z,25.50
2022-10-20T15:30:36.849Z,25.50
2022-10-20T15:33:05.311Z,25.50
2022-10-20T15:35:34.218Z,25.50
2022-10-20T15:38:02.561Z,25.40
2022-10-20T15:40:30.857Z,25.40
2022-10-20T15:42:59.156Z,25.40
2022-10-20T15:45:33.504Z,25.30
2022-10-20T15:48:01.747Z,25.30
2022-10-20T15:50:30.765Z,25.30
2022-10-20T15:52:59.063Z,25.20
2022-10-20T15:55:30.768Z,25.30
2022-10-20T15:57:59.108Z,25.20
2022-10-20T16:00:30.732Z,25.10
2022-10-20T16:02:59.045Z,25.10
2022-10-20T16:05:28.293Z,25.10
2022-10-20T16:07:57.566Z,25.10
2022-10-20T16:10:29.490Z,25.00
2022-10-20T16:12:59.066Z,25.00
2022-10-20T16:15:30.480Z,25.00
2022-10-20T16:17:59.750Z,24.90
2022-10-20T16:20:28.109Z,24.90
2022-10-20T16:22:56.476Z,24.90
2022-10-20T16:25:25.073Z,24.90
2022-10-20T16:27:53.564Z,24.90
2022-10-20T16:30:22.393Z,24.80
2022-10-20T16:32:52.594Z,24.80
2022-10-20T16:35:20.970Z,24.80
2022-10-20T16:37:49.350Z,24.80
2022-10-20T16:40:17.974Z,24.70
2022-10-20T16:42:46.541Z,24.70
2022-10-20T16:45:14.925Z,24.70
2022-10-20T16:47:43.333Z,24.70
2022-10-20T16:50:16.217Z,24.70
2022-10-20T16:52:44.991Z,24.60
2022-10-20T16:55:13.871Z,24.70
2022-10-20T16:57:42.642Z,24.60
2022-10-20T17:00:12.758Z,24.60
2022-10-20T17:02:43.248Z,24.50
2022-10-20T17:05:13.435Z,24.60
2022-10-20T17:07:41.853Z,24.50
2022-10-20T17:10:10.816Z,24.50
2022-10-20T17:12:39.381Z,24.50
2022-10-20T17:15:09.115Z,24.40
2022-10-20T17:17:37.746Z,24.40
2022-10-20T17:20:07.641Z,24.40
2022-10-20T17:22:37.569Z,24.40
2022-10-20T17:25:07.507Z,24.40
2022-10-20T17:27:36.134Z,24.30
2022-10-20T17:30:04.966Z,24.40
2022-10-20T17:32:33.346Z,24.30
2022-10-20T17:35:01.759Z,24.30
2022-10-20T17:37:30.181Z,24.30
2022-10-20T17:40:00.025Z,24.30
2022-10-20T17:42:28.647Z,24.20
2022-10-20T17:44:56.993Z,24.20
2022-10-20T17:47:25.412Z,24.20
2022-10-20T17:49:53.663Z,24.10
2022-10-20T17:52:22.098Z,24.10
2022-10-20T17:54:50.610Z,24.10
2022-10-20T17:57:20.388Z,24.10
2022-10-20T17:59:54.073Z,24.10
2022-10-20T18:02:24.860Z,24.10
2022-10-20T18:04:53.219Z,24.00
2022-10-20T18:07:21.580Z,24.00
2022-10-20T18:09:50.043Z,24.00
2022-10-20T18:12:20.090Z,24.00
2022-10-20T18:14:48.728Z,23.90
2022-10-20T18:17:17.079Z,23.90
2022-10-20T18:19:45.512Z,23.90
2022-10-20T18:22:14.256Z,23.90
2022-10-20T18:24:43.105Z,23.90
2022-10-20T18:27:11.514Z,23.80
2022-10-20T18:29:41.737Z,23.80
2022-10-20T18:32:10.130Z,23.80
2022-10-20T18:34:39.180Z,23.80
2022-10-20T18:37:07.508Z,23.80
2022-10-20T18:39:36.532Z,23.80
2022-10-20T18:42:05.182Z,23.80
2022-10-20T18:44:33.967Z,23.80
2022-10-20T18:47:04.018Z,23.80
2022-10-20T18:49:32.624Z,23.80
2022-10-20T18:52:03.034Z,23.70
2022-10-20T18:54:31.647Z,23.70
2022-10-20T18:57:00.167Z,23.70
2022-10-20T18:59:28.534Z,23.60
2022-10-20T19:01:56.789Z,23.60
2022-10-20T19:04:26.512Z,23.60
2022-10-20T19:06:54.817Z,23.60
2022-10-20T19:09:23.501Z,23.60
2022-10-20T19:11:51.930Z,23.60
2022-10-20T19:14:20.304Z,23.60
2022-10-20T19:16:49.980Z,23.50
2022-10-20T19:19:18.641Z,23.50
2022-10-20T19:21:48.375Z,23.40
2022-10-20T19:24:19.380Z,23.40
2022-10-20T19:26:57.021Z,23.40
2022-10-20T19:29:36.862Z,23.40
2022-10-20T19:32:07.501Z,23.40
2022-10-20T19:34:38.401Z,23.40
2022-10-20T19:37:08.909Z,23.40
2022-10-20T19:39:39.808Z,23.40
2022-10-20T19:42:09.408Z,23.40
2022-10-20T19:44:38.072Z,23.40
2022-10-20T19:47:08.179Z,23.40
2022-10-20T19:49:37.743Z,23.40
2022-10-20T19:52:09.220Z,23.40
2022-10-20T19:54:37.896Z,23.40
2022-10-20T19:57:07.050Z,23.40
2022-10-20T19:59:35.441Z,23.40
2022-10-20T20:02:03.839Z,23.30
2022-10-20T20:04:32.147Z,23.30
2022-10-20T20:07:02.436Z,23.30
2022-10-20T20:09:32.498Z,23.30
2022-10-20T20:12:00.796Z,23.20
2022-10-20T20:14:29.526Z,23.30
2022-10-20T20:16:57.956Z,23.20
2022-10-20T20:19:28.427Z,23.20
2022-10-20T20:21:56.750Z,23.20
2022-10-20T20:24:25.292Z,23.20
2022-10-20T20:26:55.362Z,23.20
2022-10-20T20:29:23.836Z,23.10
2022-10-20T20:31:52.119Z,23.20
2022-10-20T20:34:20.398Z,23.10
2022-10-20T20:36:49.256Z,23.10
2022-10-20T20:39:17.662Z,23.10
2022-10-20T20:41:47.093Z,23.00
2022-10-20T20:44:17.157Z,23.00
2022-10-20T20:46:45.585Z,23.00
2022-10-20T20:49:14.199Z,23.00
2022-10-20T20:51:42.595Z,23.00
2022-10-20T20:54:11.558Z,23.00
2022-10-20T20:56:39.838Z,23.00
2022-10-20T20:59:08.145Z,23.00
2022-10-20T21:01:37.827Z,23.00
2022-10-20T21:04:10.347Z,23.00
2022-10-20T21:07:00.758Z,22.90
2022-10-20T21:09:29.063Z,22.90
2022-10-20T21:11:57.766Z,22.80
2022-10-20T21:14:26.135Z,22.80
2022-10-20T21:16:55.811Z,22.80
2022-10-20T21:19:24.308Z,22.80
2022-10-20T21:21:57.418Z,22.80
2022-10-20T21:24:26.732Z,22.80
2022-10-20T21:26:55.135Z,22.80
2022-10-20T21:29:23.524Z,22.80
2022-10-20T21:31:51.898Z,22.70
2022-10-20T21:34:21.544Z,22.70
2022-10-20T21:36:49.866Z,22.70
2022-10-20T21:39:18.199Z,22.70
2022-10-20T21:41:47.539Z,22.70
2022-10-20T21:44:16.456Z,22.60
2022-10-20T21:46:47.844Z,22.60
2022-10-20T21:49:18.752Z,22.70
2022-10-20T21:51:50.774Z,22.60
2022-10-20T21:56:50.343Z,22.60
2022-10-20T21:59:21.709Z,22.60
2022-10-20T22:01:51.205Z,22.50
2022-10-20T22:04:21.923Z,22.50
2022-10-20T22:06:51.690Z,22.50
2022-10-20T22:09:21.077Z,22.50
2022-10-20T22:11:55.241Z,22.50
2022-10-20T22:14:23.763Z,22.40
2022-10-20T22:16:52.334Z,22.50
2022-10-20T22:19:22.833Z,22.40
2022-10-20T22:21:53.673Z,22.40
2022-10-20T22:24:22.759Z,22.40
2022-10-20T22:26:52.045Z,22.40
2022-10-20T22:29:21.513Z,22.40
2022-10-20T22:31:50.406Z,22.30
2022-10-20T22:34:18.756Z,22.30
2022-10-20T22:36:47.257Z,22.30
2022-10-20T22:39:16.925Z,22.30
2022-10-20T22:41:45.719Z,22.30
2022-10-20T22:44:14.039Z,22.20
2022-10-20T22:46:42.401Z,22.20
2022-10-20T22:49:10.754Z,22.20
2022-10-20T22:51:39.164Z,22.20
2022-10-20T22:54:08.123Z,22.20
2022-10-20T22:56:37.873Z,22.10
2022-10-20T22:59:06.195Z,22.10
2022-10-20T23:01:34.606Z,22.10
2022-10-20T23:04:03.013Z,22.10
2022-10-20T23:06:31.356Z,22.10
2022-10-20T23:09:00.182Z,22.10
2022-10-20T23:11:29.718Z,22.10
2022-10-20T23:13:59.405Z,22.10
2022-10-20T23:16:28.101Z,22.10
2022-10-20T23:18:56.453Z,22.00
2022-10-20T23:21:24.783Z,22.10
2022-10-20T23:23:53.393Z,22.00
2022-10-20T23:26:21.681Z,22.00
2022-10-20T23:28:50.421Z,22.00
2022-10-20T23:31:22.348Z,22.00
2022-10-20T23:33:54.977Z,22.00
2022-10-20T23:36:23.755Z,21.90
2022-10-20T23:38:52.064Z,21.90
2022-10-20T23:41:20.548Z,21.90
2022-10-20T23:43:48.885Z,21.90
2022-10-20T23:46:17.264Z,21.90
2022-10-20T23:48:46.995Z,21.80
2022-10-20T23:51:15.351Z,21.80
2022-10-20T23:53:43.693Z,21.80
2022-10-20T23:56:11.970Z,21.80
2022-10-20T23:58:40.976Z,21.80
